createdAt,value
2023-02-06T00:00:50.202Z,5.87
2023-02-06T00:03:18.029Z,5.79
2023-02-06T00:06:00.059Z,5.77
2023-02-06T00:08:27.939Z,5.51
2023-02-06T00:10:55.958Z,5.50
2023-02-06T00:13:23.276Z,5.49
2023-02-06T00:15:50.570Z,5.64
2023-02-06T00:18:17.943Z,5.51
2023-02-06T00:20:45.149Z,5.50
2023-02-06T00:23:12.469Z,5.53
2023-02-06T00:25:39.804Z,5.29
2023-02-06T00:28:07.095Z,5.29
2023-02-06T00:30:34.413Z,5.40
2023-02-06T00:33:01.691Z,5.34
2023-02-06T00:35:29.074Z,5.25
2023-02-06T00:37:56.691Z,5.35
2023-02-06T00:40:24.025Z,5.45
2023-02-06T00:42:51.180Z,5.41
2023-02-06T00:45:18.446Z,5.34
2023-02-06T00:47:45.729Z,5.31
2023-02-06T00:50:12.964Z,5.44
2023-02-06T00:52:40.309Z,5.44
2023-02-06T00:55:07.799Z,4.96
2023-02-06T00:57:35.116Z,5.12
2023-02-06T01:00:04.467Z,5.19
2023-02-06T01:02:31.896Z,4.98
2023-02-06T01:04:59.269Z,4.89
2023-02-06T01:07:26.964Z,4.92
2023-02-06T01:09:54.273Z,4.95
2023-02-06T01:12:21.758Z,4.91
2023-02-06T01:14:49.239Z,5.15
2023-02-06T01:17:16.615Z,4.80
2023-02-06T01:19:44.553Z,4.94
2023-02-06T01:22:11.796Z,5.14
2023-02-06T01:24:39.010Z,5.17
2023-02-06T01:27:06.416Z,4.95
2023-02-06T01:29:33.739Z,4.96
2023-02-06T01:32:01.070Z,4.89
2023-02-06T01:34:28.323Z,4.99
2023-02-06T01:36:55.700Z,4.97
2023-02-06T01:39:22.907Z,5.07
2023-02-06T01:41:51.111Z,4.78
2023-02-06T01:44:24.331Z,4.66
2023-02-06T01:46:54.951Z,4.73
2023-02-06T01:49:30.972Z,4.82
2023-02-06T01:52:31.173Z,4.86
2023-02-06T01:55:01.367Z,4.98
2023-02-06T01:57:29.500Z,4.92
2023-02-06T01:59:59.980Z,4.72
2023-02-06T02:02:30.024Z,4.81
2023-02-06T02:04:57.207Z,4.98
2023-02-06T02:07:31.954Z,4.64
2023-02-06T02:09:59.615Z,4.71
2023-02-06T02:12:28.374Z,4.53
2023-02-06T02:14:57.069Z,4.55
2023-02-06T02:17:33.333Z,4.63
2023-02-06T02:20:15.883Z,4.75
2023-02-06T02:22:58.750Z,4.69
2023-02-06T02:26:02.993Z,4.63
2023-02-06T02:28:53.893Z,4.66
2023-02-06T02:31:39.089Z,4.53
2023-02-06T02:34:33.187Z,4.70
2023-02-06T02:37:11.031Z,4.73
2023-02-06T02:39:50.284Z,4.71
2023-02-06T02:42:27.929Z,4.46
2023-02-06T02:45:10.490Z,4.39
2023-02-06T02:48:07.704Z,4.44
2023-02-06T02:50:35.799Z,4.63
2023-02-06T02:53:05.118Z,4.72
2023-02-06T02:55:32.494Z,4.47
2023-02-06T02:58:06.912Z,4.58
2023-02-06T03:00:37.273Z,4.54
2023-02-06T03:03:08.444Z,4.58
2023-02-06T03:05:37.538Z,4.54
2023-02-06T03:08:20.253Z,4.54
2023-02-06T03:11:09.627Z,4.66
2023-02-06T03:14:06.025Z,4.33
2023-02-06T03:16:37.647Z,4.23
2023-02-06T03:19:09.627Z,4.15
2023-02-06T03:21:40.004Z,4.37
2023-02-06T03:24:29.534Z,4.34
2023-02-06T03:26:59.659Z,4.35
2023-02-06T03:29:29.663Z,4.33
2023-02-06T03:32:06.298Z,4.15
2023-02-06T03:35:15.133Z,4.05
2023-02-06T03:37:42.834Z,4.23
2023-02-06T03:40:11.266Z,4.17
2023-02-06T03:42:41.423Z,4.29
2023-02-06T03:45:37.579Z,4.43
2023-02-06T03:48:29.935Z,4.38
2023-02-06T03:50:59.733Z,4.14
2023-02-06T03:53:27.385Z,4.21
2023-02-06T03:55:58.570Z,4.07
2023-02-06T03:58:26.190Z,4.19
2023-02-06T04:00:53.801Z,4.21
2023-02-06T04:03:21.530Z,4.17
2023-02-06T04:05:49.017Z,4.15
2023-02-06T04:08:16.614Z,4.22
2023-02-06T04:10:43.927Z,4.20
2023-02-06T04:13:11.234Z,4.31
2023-02-06T04:15:38.618Z,4.26
2023-02-06T04:18:06.239Z,4.27
2023-02-06T04:20:33.750Z,4.12
2023-02-06T04:23:00.962Z,4.18
2023-02-06T04:25:28.252Z,4.12
2023-02-06T04:27:55.576Z,4.05
2023-02-06T04:30:22.892Z,3.93
2023-02-06T04:32:50.215Z,3.97
2023-02-06T04:35:17.877Z,3.96
2023-02-06T04:37:45.144Z,4.01
2023-02-06T04:40:12.853Z,4.01
2023-02-06T04:42:43.631Z,3.99
2023-02-06T04:45:10.918Z,3.87
2023-02-06T04:47:38.682Z,3.99
2023-02-06T04:50:06.321Z,3.87
2023-02-06T04:52:33.511Z,3.78
2023-02-06T04:55:00.758Z,3.92
2023-02-06T04:57:28.131Z,3.88
2023-02-06T04:59:55.347Z,3.80
2023-02-06T05:02:22.670Z,3.77
2023-02-06T05:04:51.907Z,3.64
2023-02-06T05:07:19.765Z,3.85
2023-02-06T05:09:47.280Z,3.80
2023-02-06T05:12:14.547Z,3.62
2023-02-06T05:14:41.822Z,3.69
2023-02-06T05:17:09.197Z,3.69
2023-02-06T05:19:36.643Z,3.61
2023-02-06T05:22:04.113Z,3.51
2023-02-06T05:24:31.449Z,3.68
2023-02-06T05:26:58.819Z,3.78
2023-02-06T05:29:26.151Z,3.64
2023-02-06T05:31:54.092Z,3.58
2023-02-06T05:34:21.314Z,3.57
2023-02-06T05:36:48.593Z,3.74
2023-02-06T05:39:15.840Z,3.87
2023-02-06T05:41:43.060Z,3.87
2023-02-06T05:44:11.048Z,4.00
2023-02-06T05:46:38.403Z,3.93
2023-02-06T05:49:05.947Z,4.00
2023-02-06T05:51:33.244Z,3.92
2023-02-06T05:54:00.605Z,3.64
2023-02-06T05:56:27.865Z,3.63
2023-02-06T05:58:55.185Z,3.79
2023-02-06T06:01:22.477Z,3.82
2023-02-06T06:03:49.946Z,3.60
2023-02-06T06:06:17.362Z,3.59
2023-02-06T06:08:44.651Z,3.55
2023-02-06T06:11:12.813Z,3.61
2023-02-06T06:13:40.796Z,3.62
2023-02-06T06:16:08.273Z,3.62
2023-02-06T06:18:35.826Z,3.71
2023-02-06T06:21:05.499Z,3.60
2023-02-06T06:23:33.074Z,3.58
2023-02-06T06:26:00.421Z,3.51
2023-02-06T06:28:27.782Z,3.60
2023-02-06T06:31:03.010Z,3.67
2023-02-06T06:33:30.417Z,3.56
2023-02-06T06:35:58.421Z,3.60
2023-02-06T06:38:27.550Z,3.68
2023-02-06T06:40:54.829Z,3.69
2023-02-06T06:43:22.305Z,3.85
2023-02-06T06:45:49.518Z,3.92
2023-02-06T06:48:16.830Z,3.94
2023-02-06T06:50:44.262Z,3.78
2023-02-06T06:53:11.559Z,3.66
2023-02-06T06:55:38.810Z,3.77
2023-02-06T06:58:06.077Z,3.72
2023-02-06T07:00:33.455Z,3.67
2023-02-06T07:03:00.768Z,3.78
2023-02-06T07:05:28.112Z,3.60
2023-02-06T07:07:55.392Z,3.59
2023-02-06T07:10:22.735Z,3.69
2023-02-06T07:12:53.707Z,3.58
2023-02-06T07:15:20.960Z,3.65
2023-02-06T07:17:48.186Z,3.64
2023-02-06T07:20:15.942Z,3.72
2023-02-06T07:22:43.325Z,3.72
2023-02-06T07:25:10.646Z,3.77
2023-02-06T07:27:37.878Z,3.79
2023-02-06T07:30:06.611Z,3.71
2023-02-06T07:32:37.018Z,3.73
2023-02-06T07:35:05.240Z,3.68
2023-02-06T07:37:32.828Z,3.45
2023-02-06T07:40:00.132Z,3.75
2023-02-06T07:42:27.738Z,3.76
2023-02-06T07:45:00.318Z,3.70
2023-02-06T07:47:27.489Z,3.77
2023-02-06T07:49:54.786Z,3.74
2023-02-06T07:52:22.413Z,3.88
2023-02-06T07:54:49.673Z,3.71
2023-02-06T07:57:17.401Z,3.65
2023-02-06T07:59:44.743Z,3.63
2023-02-06T08:02:12.623Z,3.44
2023-02-06T08:04:40.113Z,3.31
2023-02-06T08:07:09.865Z,3.53
2023-02-06T08:09:37.139Z,3.39
2023-02-06T08:12:04.521Z,3.50
2023-02-06T08:14:32.693Z,3.78
2023-02-06T08:17:00.334Z,3.85
2023-02-06T08:19:27.545Z,3.93
2023-02-06T08:21:54.885Z,3.62
2023-02-06T08:24:22.133Z,3.70
2023-02-06T08:26:49.651Z,3.73
2023-02-06T08:29:17.059Z,3.92
2023-02-06T08:31:44.411Z,4.12
2023-02-06T08:34:13.969Z,4.39
2023-02-06T08:36:43.452Z,4.23
2023-02-06T08:39:13.576Z,4.12
2023-02-06T08:41:42.468Z,4.32
2023-02-06T08:44:13.363Z,3.97
2023-02-06T08:46:40.803Z,4.00
2023-02-06T08:49:12.561Z,3.99
2023-02-06T08:51:39.998Z,3.93
2023-02-06T08:54:10.846Z,4.08
2023-02-06T08:56:38.795Z,4.03
2023-02-06T08:59:07.506Z,3.84
2023-02-06T09:01:36.298Z,4.00
2023-02-06T09:04:06.631Z,3.88
2023-02-06T09:06:40.594Z,4.01
2023-02-06T09:09:09.845Z,3.97
2023-02-06T09:11:37.702Z,3.96
2023-02-06T09:14:06.241Z,3.93
2023-02-06T09:16:34.511Z,3.71
2023-02-06T09:19:02.797Z,3.76
2023-02-06T09:21:32.595Z,3.78
2023-02-06T09:24:01.086Z,4.71
2023-02-06T09:26:31.167Z,4.23
2023-02-06T09:29:00.422Z,3.88
2023-02-06T09:31:32.837Z,4.02
2023-02-06T09:34:01.246Z,4.13
2023-02-06T09:36:30.309Z,4.45
2023-02-06T09:38:59.595Z,4.12
2023-02-06T09:41:26.844Z,4.22
2023-02-06T09:44:07.015Z,4.28
2023-02-06T09:46:36.544Z,4.27
2023-02-06T09:49:12.038Z,4.10
2023-02-06T09:52:11.242Z,4.30
2023-02-06T09:54:44.637Z,4.39
2023-02-06T09:57:21.931Z,4.63
2023-02-06T09:59:54.027Z,4.63
2023-02-06T10:02:30.451Z,4.76
2023-02-06T10:05:32.065Z,4.95
2023-02-06T10:08:08.836Z,4.91
2023-02-06T10:10:44.014Z,4.86
2023-02-06T10:13:24.166Z,4.92
2023-02-06T10:15:55.337Z,4.86
2023-02-06T10:18:32.877Z,4.91
2023-02-06T10:21:12.837Z,4.90
2023-02-06T10:23:47.480Z,4.91
2023-02-06T10:26:19.118Z,4.87
2023-02-06T10:28:52.319Z,4.88
2023-02-06T10:31:33.386Z,5.10
2023-02-06T10:34:20.596Z,5.01
2023-02-06T10:36:57.078Z,4.81
2023-02-06T10:39:30.892Z,4.98
2023-02-06T10:42:10.678Z,5.02
2023-02-06T10:44:51.282Z,5.31
2023-02-06T10:47:54.337Z,5.52
2023-02-06T10:50:30.153Z,5.65
2023-02-06T10:53:01.310Z,5.25
2023-02-06T10:55:42.200Z,5.25
2023-02-06T10:58:29.317Z,5.31
2023-02-06T11:00:58.599Z,5.19
2023-02-06T11:03:30.642Z,5.47
2023-02-06T11:05:59.483Z,5.74
2023-02-06T11:08:34.663Z,5.81
2023-02-06T11:11:32.398Z,5.57
2023-02-06T11:14:25.237Z,5.65
2023-02-06T11:16:53.468Z,5.51
2023-02-06T11:19:34.091Z,5.48
2023-02-06T11:22:04.632Z,5.33
2023-02-06T11:24:32.092Z,5.47
2023-02-06T11:27:02.251Z,5.43
2023-02-06T11:29:37.305Z,5.60
2023-02-06T11:32:06.749Z,5.49
2023-02-06T11:34:52.461Z,5.46
2023-02-06T11:37:37.920Z,5.50
2023-02-06T11:40:18.910Z,5.63
2023-02-06T11:42:48.191Z,5.57
2023-02-06T11:45:30.844Z,5.52
2023-02-06T11:47:58.822Z,5.72
2023-02-06T11:50:30.308Z,5.86
2023-02-06T11:53:19.452Z,5.89
2023-02-06T11:56:13.845Z,5.99
2023-02-06T11:58:41.136Z,6.18
2023-02-06T12:01:19.175Z,6.21
2023-02-06T12:03:58.432Z,6.35
2023-02-06T12:06:43.879Z,6.29
2023-02-06T12:09:13.653Z,6.27
2023-02-06T12:11:53.047Z,6.29
2023-02-06T12:14:33.433Z,6.32
2023-02-06T12:17:03.114Z,6.39
2023-02-06T12:19:47.273Z,6.38
2023-02-06T12:22:18.972Z,6.24
2023-02-06T12:24:48.975Z,6.34
2023-02-06T12:27:39.244Z,6.57
2023-02-06T12:30:26.531Z,6.63
2023-02-06T12:33:04.107Z,6.32
2023-02-06T12:35:43.769Z,6.39
2023-02-06T12:38:44.012Z,6.23
2023-02-06T12:41:28.985Z,6.15
2023-02-06T12:44:33.806Z,6.12
2023-02-06T12:47:14.432Z,6.51
2023-02-06T12:49:55.193Z,6.71
2023-02-06T12:52:31.810Z,6.44
2023-02-06T12:55:35.564Z,6.13
2023-02-06T12:58:04.642Z,6.25
2023-02-06T13:00:54.040Z,6.20
2023-02-06T13:03:28.867Z,6.36
2023-02-06T13:06:03.002Z,6.23
2023-02-06T13:08:47.103Z,6.41
2023-02-06T13:11:32.529Z,6.28
2023-02-06T13:14:02.450Z,6.42
2023-02-06T13:16:42.528Z,6.69
2023-02-06T13:19:32.365Z,6.74
2023-02-06T13:22:13.472Z,6.94
2023-02-06T13:24:42.037Z,6.91
2023-02-06T13:27:09.348Z,7.09
2023-02-06T13:29:38.902Z,7.09
2023-02-06T13:32:12.498Z,7.09
2023-02-06T13:34:44.189Z,7.13
2023-02-06T13:37:38.058Z,7.11
2023-02-06T13:40:23.851Z,7.14
2023-02-06T13:42:56.918Z,7.22
2023-02-06T13:45:29.000Z,7.15
2023-02-06T13:48:08.745Z,7.17
2023-02-06T13:51:14.078Z,7.07
2023-02-06T13:54:19.179Z,7.20
2023-02-06T13:56:46.801Z,7.30
2023-02-06T13:59:19.142Z,7.24
2023-02-06T14:01:46.840Z,7.41
2023-02-06T14:04:20.041Z,7.47
2023-02-06T14:07:23.024Z,7.34
2023-02-06T14:10:38.465Z,7.41
2023-02-06T14:13:45.088Z,7.28
2023-02-06T14:16:33.667Z,7.28
2023-02-06T14:19:22.662Z,7.37
2023-02-06T14:22:08.275Z,7.41
2023-02-06T14:25:07.225Z,7.36
2023-02-06T14:27:44.780Z,7.40
2023-02-06T14:30:49.009Z,7.50
2023-02-06T14:33:31.318Z,7.57
2023-02-06T14:36:23.836Z,7.71
2023-02-06T14:39:40.900Z,7.73
2023-02-06T14:42:32.794Z,7.56
2023-02-06T14:45:04.696Z,7.44
2023-02-06T14:47:51.311Z,7.52
2023-02-06T14:50:23.301Z,7.51
2023-02-06T14:52:58.928Z,7.68
2023-02-06T14:55:35.697Z,7.82
2023-02-06T14:58:13.101Z,8.00
2023-02-06T15:00:40.598Z,8.05
2023-02-06T15:03:15.368Z,8.01
2023-02-06T15:05:43.974Z,7.94
2023-02-06T15:08:19.547Z,7.98
2023-02-06T15:10:47.504Z,7.73
2023-02-06T15:13:23.273Z,7.89
2023-02-06T15:15:56.647Z,8.07
2023-02-06T15:18:24.392Z,8.01
2023-02-06T15:20:58.568Z,8.21
2023-02-06T15:23:53.571Z,8.23
2023-02-06T15:26:32.100Z,8.26
2023-02-06T15:29:01.859Z,8.39
2023-02-06T15:31:29.479Z,8.37
2023-02-06T15:34:00.742Z,8.13
2023-02-06T15:36:33.837Z,8.10
2023-02-06T15:39:02.021Z,7.94
2023-02-06T15:41:31.260Z,7.99
2023-02-06T15:44:04.572Z,8.21
2023-02-06T15:46:32.018Z,7.95
2023-02-06T15:48:59.597Z,8.06
2023-02-06T15:51:29.502Z,8.04
2023-02-06T15:54:15.533Z,8.01
2023-02-06T15:56:43.601Z,7.75
2023-02-06T15:59:24.127Z,7.91
2023-02-06T16:01:52.925Z,7.91
2023-02-06T16:04:28.461Z,7.97
2023-02-06T16:07:10.603Z,8.15
2023-02-06T16:09:44.942Z,8.07
2023-02-06T16:12:13.356Z,7.96
2023-02-06T16:14:41.953Z,8.16
2023-02-06T16:17:15.450Z,8.21
2023-02-06T16:19:48.472Z,7.93
2023-02-06T16:22:24.595Z,7.88
2023-02-06T16:24:55.002Z,7.74
2023-02-06T16:27:27.909Z,7.91
2023-02-06T16:29:56.657Z,7.84
2023-02-06T16:32:25.138Z,8.00
2023-02-06T16:34:52.778Z,7.90
2023-02-06T16:37:25.861Z,7.81
2023-02-06T16:39:53.783Z,7.90
2023-02-06T16:42:23.721Z,7.71
2023-02-06T16:44:53.425Z,7.71
2023-02-06T16:47:21.573Z,7.82
2023-02-06T16:49:49.612Z,7.91
2023-02-06T16:52:22.482Z,7.82
2023-02-06T16:54:49.997Z,8.00
2023-02-06T16:57:29.332Z,8.13
2023-02-06T16:59:56.933Z,8.06
2023-02-06T17:02:25.901Z,7.77
2023-02-06T17:04:53.317Z,7.80
2023-02-06T17:07:25.287Z,7.81
2023-02-06T17:09:54.406Z,7.91
2023-02-06T17:12:22.597Z,7.71
2023-02-06T17:14:49.921Z,7.50
2023-02-06T17:17:20.216Z,7.42
2023-02-06T17:19:48.565Z,7.63
2023-02-06T17:22:16.117Z,7.35
2023-02-06T17:24:43.968Z,7.19
2023-02-06T17:27:17.976Z,7.43
2023-02-06T17:29:47.465Z,7.48
2023-02-06T17:32:16.304Z,7.30
2023-02-06T17:34:43.592Z,7.34
2023-02-06T17:37:20.581Z,7.34
2023-02-06T17:39:52.109Z,7.29
2023-02-06T17:42:19.623Z,7.12
2023-02-06T17:44:46.841Z,7.16
2023-02-06T17:47:14.088Z,7.36
2023-02-06T17:49:41.329Z,7.52
2023-02-06T17:52:08.545Z,7.35
2023-02-06T17:54:35.856Z,7.31
2023-02-06T17:57:03.310Z,7.51
2023-02-06T17:59:30.693Z,7.59
2023-02-06T18:01:59.373Z,7.43
2023-02-06T18:04:27.831Z,7.52
2023-02-06T18:06:55.078Z,7.33
2023-02-06T18:09:22.302Z,7.20
2023-02-06T18:11:49.769Z,7.18
2023-02-06T18:14:17.072Z,6.99
2023-02-06T18:16:45.575Z,7.04
2023-02-06T18:19:13.201Z,6.87
2023-02-06T18:21:40.435Z,7.00
2023-02-06T18:24:08.022Z,7.20
2023-02-06T18:26:35.572Z,7.31
2023-02-06T18:29:05.117Z,7.00
2023-02-06T18:31:34.008Z,7.12
2023-02-06T18:34:03.374Z,7.20
2023-02-06T18:36:30.776Z,7.11
2023-02-06T18:38:58.103Z,7.19
2023-02-06T18:41:44.045Z,6.94
2023-02-06T18:44:12.004Z,6.69
2023-02-06T18:46:39.559Z,6.79
2023-02-06T18:49:06.988Z,6.98
2023-02-06T18:51:34.262Z,6.73
2023-02-06T18:54:01.609Z,6.77
2023-02-06T18:56:29.082Z,6.94
2023-02-06T18:58:56.363Z,6.82
2023-02-06T19:01:24.667Z,6.54
2023-02-06T19:03:53.298Z,6.56
2023-02-06T19:06:28.921Z,6.53
2023-02-06T19:08:56.941Z,6.63
2023-02-06T19:11:24.503Z,6.70
2023-02-06T19:13:51.855Z,6.69
2023-02-06T19:16:20.252Z,6.83
2023-02-06T19:18:48.911Z,6.84
2023-02-06T19:21:18.932Z,6.89
2023-02-06T19:23:46.962Z,6.80
2023-02-06T19:26:15.809Z,6.74
2023-02-06T19:28:43.787Z,6.76
2023-02-06T19:31:12.499Z,6.68
2023-02-06T19:33:41.303Z,6.44
2023-02-06T19:36:16.077Z,6.87
2023-02-06T19:38:44.236Z,6.60
2023-02-06T19:41:18.996Z,6.51
2023-02-06T19:43:47.334Z,6.27
2023-02-06T19:46:16.121Z,6.60
2023-02-06T19:48:45.543Z,6.41
2023-02-06T19:51:15.330Z,6.52
2023-02-06T19:53:45.765Z,6.38
2023-02-06T19:56:26.185Z,5.90
2023-02-06T19:58:57.302Z,5.89
2023-02-06T20:01:25.090Z,6.00
2023-02-06T20:03:53.042Z,6.05
2023-02-06T20:06:20.344Z,6.00
2023-02-06T20:08:47.932Z,6.12
2023-02-06T20:11:18.580Z,5.91
2023-02-06T20:13:47.346Z,6.15
2023-02-06T20:16:17.342Z,5.81
2023-02-06T20:18:45.200Z,5.95
2023-02-06T20:21:27.922Z,5.98
2023-02-06T20:23:58.118Z,5.88
2023-02-06T20:26:27.764Z,5.88
2023-02-06T20:28:55.264Z,5.75
2023-02-06T20:31:23.070Z,5.70
2023-02-06T20:33:50.457Z,5.78
2023-02-06T20:36:24.277Z,5.60
2023-02-06T20:38:53.877Z,5.48
2023-02-06T20:41:23.287Z,5.38
2023-02-06T20:43:50.744Z,5.38
2023-02-06T20:46:18.147Z,5.31
2023-02-06T20:48:46.964Z,5.41
2023-02-06T20:51:14.786Z,5.46
2023-02-06T20:53:42.109Z,5.73
2023-02-06T20:56:14.546Z,5.65
2023-02-06T20:58:43.024Z,5.48
2023-02-06T21:01:19.590Z,5.47
2023-02-06T21:03:47.228Z,5.31
2023-02-06T21:06:15.197Z,5.26
2023-02-06T21:08:42.900Z,5.43
2023-02-06T21:11:10.289Z,5.57
2023-02-06T21:13:40.033Z,5.20
2023-02-06T21:16:08.516Z,5.13
2023-02-06T21:18:36.355Z,5.21
2023-02-06T21:21:09.533Z,5.25
2023-02-06T21:23:41.894Z,5.40
2023-02-06T21:26:10.551Z,5.39
2023-02-06T21:28:38.548Z,5.09
2023-02-06T21:31:09.945Z,5.02
2023-02-06T21:33:37.782Z,5.12
2023-02-06T21:36:07.664Z,5.26
2023-02-06T21:38:36.140Z,5.18
2023-02-06T21:41:12.103Z,5.20
2023-02-06T21:43:39.556Z,4.85
2023-02-06T21:46:07.068Z,5.09
2023-02-06T21:48:35.304Z,5.48
2023-02-06T21:51:16.696Z,5.13
2023-02-06T21:53:45.379Z,5.18
2023-02-06T21:56:18.337Z,5.30
2023-02-06T21:58:46.226Z,5.14
2023-02-06T22:01:26.359Z,4.89
2023-02-06T22:03:54.461Z,4.87
2023-02-06T22:06:21.785Z,5.14
2023-02-06T22:08:54.181Z,5.21
2023-02-06T22:11:24.166Z,5.16
2023-02-06T22:13:52.113Z,4.90
2023-02-06T22:16:27.384Z,4.97
2023-02-06T22:18:55.742Z,5.02
2023-02-06T22:21:26.356Z,5.08
2023-02-06T22:23:56.425Z,5.25
2023-02-06T22:26:23.857Z,4.82
2023-02-06T22:28:51.239Z,4.95
2023-02-06T22:31:23.802Z,5.01
2023-02-06T22:33:51.733Z,4.85
2023-02-06T22:36:23.247Z,4.70
2023-02-06T22:38:56.144Z,4.67
2023-02-06T22:41:23.483Z,4.66
2023-02-06T22:43:51.704Z,4.75
2023-02-06T22:46:34.011Z,4.88
2023-02-06T22:49:01.694Z,5.00
2023-02-06T22:51:29.136Z,4.78
2023-02-06T22:53:56.645Z,4.91
2023-02-06T22:56:27.130Z,4.85
2023-02-06T22:58:56.585Z,4.89
2023-02-06T23:01:25.571Z,4.88
2023-02-06T23:03:54.156Z,4.77
2023-02-06T23:06:21.731Z,4.69
2023-02-06T23:08:49.239Z,4.68
2023-02-06T23:11:16.784Z,4.49
2023-02-06T23:13:44.052Z,4.35
2023-02-06T23:16:12.001Z,4.57
2023-02-06T23:18:39.346Z,4.67
2023-02-06T23:21:11.945Z,4.53
2023-02-06T23:23:39.947Z,4.53
2023-02-06T23:26:10.296Z,4.55
2023-02-06T23:28:38.227Z,4.62
2023-02-06T23:31:06.182Z,4.58
2023-02-06T23:33:33.858Z,4.26
2023-02-06T23:36:10.845Z,4.40
2023-02-06T23:38:39.073Z,4.47
2023-02-06T23:41:11.088Z,4.43
2023-02-06T23:43:39.270Z,4.60
2023-02-06T23:46:10.350Z,4.55
2023-02-06T23:48:39.710Z,4.50
2023-02-06T23:51:07.513Z,4.50
2023-02-06T23:53:34.997Z,4.31
2023-02-06T23:56:08.892Z,4.32
2023-02-06T23:58:36.165Z,4.06
